Terminal Aerodrome Forecast
Issued by NWS

Home | Current Version | Previous Version | Text Only | Print | Product List | Glossary On
Versions: 1 2 3 4 5 6 7 8 9 10 11 12 13 14 15 16 17 18 19 20 21
557
FTUS41 KBTV 110543
TAFSLK
TAF
KSLK 110543Z 1106/1206 22008KT 3SM -SHSN BR OVC025
      TEMPO 1106/1110 1 1/2SM -SHSN BR OVC009
     FM111000 28009KT P6SM VCSH BKN030
      TEMPO 1110/1112 4SM -SHSN OVC020
     FM111600 25005KT P6SM SCT030
     FM120400 VRB03KT P6SM VCSH OVC060=

USA.gov is the U.S. government's official web portal to all federal, state and local government web resources and services.